Time;durP1;ratioP1;P1;durP2;ratioP2;P2;SDS_P1;SDS_P2;PMS_P1;PMS_P2;Temp;Humidity;BMP_temperature;BMP_pressure;BME280_temperature;BME280_humidity;BME280_pressure;Samples;Min_cycle;Max_cycle;Signal;HPM_P1;HPM_P2
2021/08/21 00:01:47;;;;;;;7.07;6.37;;;;;;;;;;5015268;28;20883;-83
2021/08/21 00:04:15;;;;;;;8.50;5.97;;;;;;;;;;5014723;28;20414;-85
2021/08/21 00:06:44;;;;;;;13.43;6.60;;;;;;;;;;5015288;28;20474;-84
2021/08/21 00:09:12;;;;;;;6.93;5.43;;;;;;;;;;5016210;28;20442;-83
2021/08/21 00:11:38;;;;;;;7.90;6.07;;;;;;;;;;5015030;28;20421;-86
2021/08/21 00:14:06;;;;;;;9.07;6.20;;;;;;;;;;5016038;28;20949;-84
2021/08/21 00:16:33;;;;;;;6.83;6.10;;;;;;;;;;4998933;28;20449;-86
2021/08/21 00:19:00;;;;;;;7.27;6.57;;;;;;;;;;5014604;28;20552;-83
2021/08/21 00:21:26;;;;;;;6.23;5.63;;;;;;;;;;5016142;28;20410;-84
2021/08/21 00:23:52;;;;;;;6.90;5.20;;;;;;;;;;4998988;28;20437;-86
2021/08/21 00:26:18;;;;;;;6.03;5.27;;;;;;;;;;5016062;28;20472;-83
2021/08/21 00:28:44;;;;;;;11.10;5.00;;;;;;;;;;5015999;28;20414;-85
2021/08/21 00:31:10;;;;;;;6.20;5.60;;;;;;;;;;5018077;28;20428;-81
2021/08/21 00:33:36;;;;;;;8.07;5.90;;;;;;;;;;5020541;28;20856;-85
2021/08/21 00:36:02;;;;;;;9.23;5.13;;;;;;;;;;5016684;28;20433;-85
2021/08/21 00:38:28;;;;;;;6.37;5.17;;;;;;;;;;5016231;28;20536;-84
2021/08/21 00:40:54;;;;;;;5.60;5.00;;;;;;;;;;5015930;28;20548;-85
2021/08/21 00:43:20;;;;;;;6.70;5.77;;;;;;;;;;5014388;28;20468;-82
2021/08/21 00:45:46;;;;;;;6.50;5.87;;;;;;;;;;5015702;28;20477;-83
2021/08/21 00:48:12;;;;;;;8.30;5.80;;;;;;;;;;5015563;28;20420;-83
2021/08/21 00:50:39;;;;;;;6.67;5.80;;;;;;;;;;5015912;28;20414;-82
2021/08/21 00:53:05;;;;;;;8.77;6.20;;;;;;;;;;5013990;28;20421;-84
2021/08/21 00:55:31;;;;;;;6.83;6.00;;;;;;;;;;5015246;28;20441;-86
2021/08/21 00:57:57;;;;;;;11.87;6.57;;;;;;;;;;5015517;28;20467;-84
2021/08/21 01:00:23;;;;;;;6.20;5.60;;;;;;;;;;5015267;28;20902;-82
2021/08/21 01:02:49;;;;;;;8.00;6.10;;;;;;;;;;5015157;28;20428;-84
2021/08/21 01:05:16;;;;;;;6.30;4.90;;;;;;;;;;5015254;28;20560;-83
2021/08/21 01:07:42;;;;;;;6.87;5.47;;;;;;;;;;5015210;28;20430;-84
2021/08/21 01:10:10;;;;;;;7.47;5.53;;;;;;;;;;5015031;28;20417;-82
2021/08/21 01:12:36;;;;;;;7.23;5.80;;;;;;;;;;5015033;28;20428;-84
2021/08/21 01:15:03;;;;;;;9.70;5.63;;;;;;;;;;5014791;28;20845;-83
2021/08/21 01:17:29;;;;;;;5.80;5.20;;;;;;;;;;5015252;28;20805;-83
2021/08/21 01:19:55;;;;;;;5.30;4.80;;;;;;;;;;5015335;28;20848;-82
2021/08/21 01:22:24;;;;;;;6.00;5.40;;;;;;;;;;5015278;28;20449;-82
2021/08/21 01:24:51;;;;;;;5.97;5.37;;;;;;;;;;5015444;28;20488;-83
2021/08/21 01:27:21;;;;;;;6.40;5.53;;;;;;;;;;5019614;28;20396;-83
2021/08/21 01:29:47;;;;;;;6.33;5.13;;;;;;;;;;5015198;28;20425;-81
2021/08/21 01:32:13;;;;;;;5.83;5.03;;;;;;;;;;5015485;28;20513;-84
2021/08/21 01:34:39;;;;;;;9.33;5.00;;;;;;;;;;5014614;28;20457;-81
2021/08/21 01:37:05;;;;;;;6.80;5.13;;;;;;;;;;5014585;28;20492;-84
2021/08/21 01:39:31;;;;;;;7.20;4.57;;;;;;;;;;5013058;28;20453;-84
2021/08/21 01:41:57;;;;;;;6.20;4.87;;;;;;;;;;5013058;28;20399;-84
2021/08/21 01:44:24;;;;;;;6.07;5.53;;;;;;;;;;5013995;28;20425;-84
2021/08/21 01:46:49;;;;;;;6.07;4.67;;;;;;;;;;5013409;28;20445;-81
2021/08/21 01:49:18;;;;;;;5.23;4.63;;;;;;;;;;5014260;28;20406;-83
2021/08/21 01:51:45;;;;;;;4.77;4.27;;;;;;;;;;5012778;28;20476;-83
2021/08/21 01:54:11;;;;;;;11.80;5.30;;;;;;;;;;5012465;28;20509;-82
2021/08/21 01:56:41;;;;;;;4.80;4.30;;;;;;;;;;5014211;28;20424;-82
2021/08/21 01:59:07;;;;;;;6.30;5.23;;;;;;;;;;5014067;28;20413;-82
2021/08/21 02:01:34;;;;;;;7.30;5.30;;;;;;;;;;5014072;28;20418;-83
2021/08/21 02:04:00;;;;;;;6.90;5.10;;;;;;;;;;5013602;28;20764;-81
2021/08/21 02:06:26;;;;;;;8.90;5.57;;;;;;;;;;5013283;28;20504;-83
2021/08/21 02:08:52;;;;;;;5.73;5.20;;;;;;;;;;5013879;28;20829;-82
2021/08/21 02:11:17;;;;;;;6.17;5.20;;;;;;;;;;5013873;28;20421;-82
2021/08/21 02:13:43;;;;;;;8.23;4.50;;;;;;;;;;5013495;28;20625;-82
2021/08/21 02:16:09;;;;;;;7.73;5.20;;;;;;;;;;5012459;28;20434;-83
2021/08/21 02:18:35;;;;;;;7.00;4.60;;;;;;;;;;5013407;28;20457;-84
2021/08/21 02:21:01;;;;;;;5.57;4.37;;;;;;;;;;5015504;28;20422;-82
2021/08/21 02:23:27;;;;;;;10.13;5.40;;;;;;;;;;5013634;28;20414;-83
2021/08/21 02:25:56;;;;;;;7.40;4.60;;;;;;;;;;4995966;28;20473;-84
2021/08/21 02:28:22;;;;;;;9.43;5.63;;;;;;;;;;5012671;28;20410;-80
2021/08/21 02:30:49;;;;;;;6.23;5.17;;;;;;;;;;5013718;28;20418;-83
2021/08/21 02:33:15;;;;;;;10.80;5.70;;;;;;;;;;5013361;28;20418;-83
2021/08/21 02:35:41;;;;;;;5.93;5.17;;;;;;;;;;5013590;28;20433;-82
2021/08/21 02:38:08;;;;;;;9.50;5.03;;;;;;;;;;5013722;28;20417;-84
2021/08/21 02:40:34;;;;;;;5.50;4.93;;;;;;;;;;5013545;28;20405;-84
2021/08/21 02:43:00;;;;;;;8.00;5.70;;;;;;;;;;5013307;28;20414;-81
2021/08/21 02:45:26;;;;;;;5.00;4.37;;;;;;;;;;5013443;28;20476;-86
2021/08/21 02:47:52;;;;;;;6.00;5.30;;;;;;;;;;5013747;28;20409;-82
2021/08/21 02:50:18;;;;;;;8.77;6.17;;;;;;;;;;5013427;28;20818;-83
2021/08/21 02:52:44;;;;;;;7.67;4.73;;;;;;;;;;5013170;28;20411;-83
2021/08/21 02:55:10;;;;;;;7.10;5.00;;;;;;;;;;5013418;28;20430;-82
2021/08/21 02:57:36;;;;;;;7.23;5.77;;;;;;;;;;5014242;28;20424;-80
2021/08/21 03:00:03;;;;;;;11.20;5.13;;;;;;;;;;5012436;28;20502;-81
2021/08/21 03:02:29;;;;;;;6.83;4.93;;;;;;;;;;5013238;28;20418;-83
2021/08/21 03:04:55;;;;;;;6.00;5.40;;;;;;;;;;5012922;28;20848;-81
2021/08/21 03:07:21;;;;;;;6.70;6.10;;;;;;;;;;5011900;28;20524;-81
2021/08/21 03:09:47;;;;;;;6.30;5.23;;;;;;;;;;5013300;28;20410;-81
2021/08/21 03:12:13;;;;;;;6.07;5.33;;;;;;;;;;5013112;28;20491;-84
2021/08/21 03:14:39;;;;;;;7.53;5.43;;;;;;;;;;5011641;28;20422;-84
2021/08/21 03:17:10;;;;;;;5.43;4.80;;;;;;;;;;5012651;28;20422;-83
2021/08/21 03:19:36;;;;;;;6.43;5.60;;;;;;;;;;5017102;28;20418;-82
2021/08/21 03:22:02;;;;;;;5.90;5.20;;;;;;;;;;5017043;28;20429;-82
2021/08/21 03:24:28;;;;;;;6.87;5.17;;;;;;;;;;5016330;28;20929;-83
2021/08/21 03:26:54;;;;;;;24.37;6.70;;;;;;;;;;5017039;28;20410;-83
2021/08/21 03:29:20;;;;;;;11.03;5.40;;;;;;;;;;5015551;28;20418;-82
2021/08/21 03:31:46;;;;;;;6.03;5.10;;;;;;;;;;5015864;28;20433;-81
2021/08/21 03:34:12;;;;;;;8.00;5.13;;;;;;;;;;5016474;28;20413;-83
2021/08/21 03:36:38;;;;;;;6.60;5.00;;;;;;;;;;5016521;28;20436;-82
2021/08/21 03:39:04;;;;;;;5.97;5.10;;;;;;;;;;5016610;28;20416;-83
2021/08/21 03:41:30;;;;;;;5.00;4.50;;;;;;;;;;5015371;28;20854;-82
2021/08/21 03:43:56;;;;;;;5.43;4.93;;;;;;;;;;5016224;28;20417;-84
2021/08/21 03:46:21;;;;;;;6.67;4.73;;;;;;;;;;5016231;28;20831;-82
2021/08/21 03:48:47;;;;;;;11.27;4.93;;;;;;;;;;5016227;28;20417;-82
2021/08/21 03:51:13;;;;;;;5.83;5.20;;;;;;;;;;5016314;28;20501;-84
2021/08/21 03:53:39;;;;;;;5.17;4.00;;;;;;;;;;4998725;28;20456;-82
2021/08/21 03:56:05;;;;;;;11.07;5.30;;;;;;;;;;5016308;28;20471;-81
2021/08/21 03:58:31;;;;;;;6.43;5.00;;;;;;;;;;5016192;28;20429;-84
2021/08/21 04:00:57;;;;;;;13.60;4.60;;;;;;;;;;5015231;28;20421;-81
2021/08/21 04:03:23;;;;;;;8.47;4.50;;;;;;;;;;5014814;28;20422;-85
2021/08/21 04:05:49;;;;;;;4.63;3.60;;;;;;;;;;5016063;28;20607;-82
2021/08/21 04:08:15;;;;;;;6.80;4.70;;;;;;;;;;5016141;28;20410;-82
2021/08/21 04:10:41;;;;;;;6.57;4.60;;;;;;;;;;5015915;28;20414;-83
2021/08/21 04:13:07;;;;;;;5.23;4.13;;;;;;;;;;5015614;28;20429;-81
2021/08/21 04:15:33;;;;;;;5.87;4.50;;;;;;;;;;5014673;28;20948;-82
2021/08/21 04:17:59;;;;;;;10.43;4.90;;;;;;;;;;5016144;28;20418;-84
2021/08/21 04:20:25;;;;;;;4.87;3.73;;;;;;;;;;5016099;28;20751;-82
2021/08/21 04:22:51;;;;;;;5.57;4.03;;;;;;;;;;5014577;28;20446;-82
2021/08/21 04:25:17;;;;;;;4.90;4.37;;;;;;;;;;5014590;28;20505;-84
2021/08/21 04:27:43;;;;;;;6.77;4.60;;;;;;;;;;5015633;28;20408;-82
2021/08/21 04:30:09;;;;;;;6.60;4.60;;;;;;;;;;5015779;28;20491;-82
2021/08/21 04:32:35;;;;;;;4.30;3.83;;;;;;;;;;5014221;28;20422;-83
2021/08/21 04:35:01;;;;;;;5.17;4.00;;;;;;;;;;5014238;28;20449;-82
2021/08/21 04:37:27;;;;;;;5.00;4.50;;;;;;;;;;5015535;28;20436;-85
2021/08/21 04:39:53;;;;;;;7.63;4.57;;;;;;;;;;5015445;28;20417;-83
2021/08/21 04:42:19;;;;;;;5.43;4.40;;;;;;;;;;5015427;28;20414;-83
2021/08/21 04:44:45;;;;;;;4.73;4.00;;;;;;;;;;5014874;28;20474;-84
2021/08/21 04:47:11;;;;;;;7.27;4.57;;;;;;;;;;5015216;28;20782;-82
2021/08/21 04:49:37;;;;;;;5.53;4.43;;;;;;;;;;5013939;28;20414;-85
2021/08/21 04:52:04;;;;;;;6.60;4.27;;;;;;;;;;5015222;28;20421;-81
2021/08/21 04:54:30;;;;;;;5.03;4.10;;;;;;;;;;5014784;28;20782;-81
2021/08/21 04:56:56;;;;;;;4.73;4.23;;;;;;;;;;5015066;28;20408;-81
2021/08/21 04:59:22;;;;;;;4.30;3.80;;;;;;;;;;5015018;28;20409;-84
2021/08/21 05:01:48;;;;;;;4.67;4.03;;;;;;;;;;5015055;28;20641;-83
2021/08/21 05:04:13;;;;;;;5.27;4.23;;;;;;;;;;5014638;28;20406;-82
2021/08/21 05:06:40;;;;;;;4.27;3.70;;;;;;;;;;5014739;28;20473;-83
2021/08/21 05:09:06;;;;;;;5.40;4.90;;;;;;;;;;5015071;28;20438;-82
2021/08/21 05:11:32;;;;;;;7.50;5.10;;;;;;;;;;5013770;28;20500;-82
2021/08/21 05:13:58;;;;;;;5.20;4.23;;;;;;;;;;5014533;28;20493;-81
2021/08/21 05:16:24;;;;;;;4.73;4.23;;;;;;;;;;5013806;28;20437;-82
2021/08/21 05:18:54;;;;;;;5.20;3.50;;;;;;;;;;5013565;28;20428;-83
2021/08/21 05:21:31;;;;;;;7.30;4.83;;;;;;;;;;4997689;28;20765;-82
2021/08/21 05:23:57;;;;;;;7.33;4.27;;;;;;;;;;5014294;28;20472;-83
2021/08/21 05:26:23;;;;;;;6.23;4.27;;;;;;;;;;5014402;28;20476;-84
2021/08/21 05:28:49;;;;;;;5.20;4.20;;;;;;;;;;5014340;28;20384;-84
2021/08/21 05:31:15;;;;;;;6.80;4.70;;;;;;;;;;5014452;28;20556;-82
2021/08/21 05:33:41;;;;;;;5.30;4.37;;;;;;;;;;5014088;28;20468;-82
2021/08/21 05:36:07;;;;;;;4.47;4.07;;;;;;;;;;5014288;28;20469;-82
2021/08/21 05:38:33;;;;;;;6.87;4.70;;;;;;;;;;5014589;28;20393;-82
2021/08/21 05:40:59;;;;;;;6.03;4.80;;;;;;;;;;5013664;28;20414;-83
2021/08/21 05:43:25;;;;;;;6.93;5.10;;;;;;;;;;5012689;28;20420;-82
2021/08/21 05:45:51;;;;;;;8.27;5.00;;;;;;;;;;5014141;28;20496;-82
2021/08/21 05:48:17;;;;;;;5.63;4.17;;;;;;;;;;5014317;28;20789;-82
2021/08/21 05:50:43;;;;;;;5.13;4.10;;;;;;;;;;5012996;28;20475;-82
2021/08/21 05:53:09;;;;;;;6.17;4.13;;;;;;;;;;5013870;28;20393;-82
2021/08/21 05:55:35;;;;;;;6.87;4.60;;;;;;;;;;5013970;28;20472;-82
2021/08/21 05:58:01;;;;;;;7.53;4.63;;;;;;;;;;5014145;28;20403;-84
2021/08/21 06:00:27;;;;;;;6.53;5.00;;;;;;;;;;5013950;28;20421;-82
2021/08/21 06:02:53;;;;;;;5.63;4.57;;;;;;;;;;5012740;28;20859;-82
2021/08/21 06:05:19;;;;;;;8.33;4.77;;;;;;;;;;5012462;28;20561;-82
2021/08/21 06:07:45;;;;;;;12.83;5.20;;;;;;;;;;5013878;28;20523;-84
2021/08/21 06:10:11;;;;;;;8.13;5.43;;;;;;;;;;5012653;28;20418;-84
2021/08/21 06:12:37;;;;;;;11.47;5.93;;;;;;;;;;5013739;28;20771;-83
2021/08/21 06:15:04;;;;;;;6.20;5.03;;;;;;;;;;5013499;28;20777;-84
2021/08/21 06:17:30;;;;;;;11.97;5.10;;;;;;;;;;5013573;28;20776;-82
2021/08/21 06:19:56;;;;;;;8.13;5.80;;;;;;;;;;5012479;28;20392;-81
2021/08/21 06:22:22;;;;;;;10.10;5.60;;;;;;;;;;5013728;28;20418;-82
2021/08/21 06:24:49;;;;;;;10.73;4.80;;;;;;;;;;5011927;28;20971;-82
2021/08/21 06:27:15;;;;;;;6.90;5.57;;;;;;;;;;5013840;28;20790;-83
2021/08/21 06:29:40;;;;;;;12.63;6.00;;;;;;;;;;5013814;28;20386;-84
2021/08/21 06:32:07;;;;;;;16.50;7.43;;;;;;;;;;5013551;28;20811;-84
2021/08/21 06:34:33;;;;;;;13.17;6.43;;;;;;;;;;5013416;28;20537;-80
2021/08/21 06:37:00;;;;;;;11.83;7.63;;;;;;;;;;5013694;28;20984;-84
2021/08/21 06:39:26;;;;;;;12.67;8.80;;;;;;;;;;5012308;28;20406;-84
2021/08/21 06:41:52;;;;;;;11.77;9.23;;;;;;;;;;5013557;28;20377;-81
2021/08/21 06:44:18;;;;;;;14.13;9.80;;;;;;;;;;5013139;28;20799;-84
2021/08/21 06:46:44;;;;;;;12.00;9.07;;;;;;;;;;5013337;28;20465;-82
2021/08/21 06:49:10;;;;;;;11.17;7.93;;;;;;;;;;5012157;28;20432;-81
2021/08/21 06:51:36;;;;;;;10.90;8.80;;;;;;;;;;5015041;28;20513;-83
2021/08/21 06:54:03;;;;;;;13.50;9.57;;;;;;;;;;5017064;28;20429;-82
2021/08/21 06:56:29;;;;;;;11.93;8.27;;;;;;;;;;5016266;28;20438;-82
2021/08/21 06:58:55;;;;;;;14.80;9.30;;;;;;;;;;5017465;28;20433;-84
2021/08/21 07:01:21;;;;;;;10.57;9.37;;;;;;;;;;5017150;28;20417;-82
2021/08/21 07:03:47;;;;;;;11.67;9.97;;;;;;;;;;5016936;28;20422;-81
2021/08/21 07:06:13;;;;;;;11.60;9.43;;;;;;;;;;5016847;28;20448;-82
2021/08/21 07:08:39;;;;;;;10.53;8.53;;;;;;;;;;5017181;28;20917;-84
2021/08/21 07:11:05;;;;;;;11.13;9.93;;;;;;;;;;5017095;28;20415;-81
2021/08/21 07:13:31;;;;;;;9.27;8.27;;;;;;;;;;5015621;28;20409;-80
2021/08/21 07:15:57;;;;;;;10.17;8.70;;;;;;;;;;5016980;28;20514;-81
2021/08/21 07:18:23;;;;;;;11.73;8.63;;;;;;;;;;5015725;28;20479;-82
2021/08/21 07:20:49;;;;;;;9.73;8.60;;;;;;;;;;5015908;28;20780;-82
2021/08/21 07:23:15;;;;;;;12.77;9.20;;;;;;;;;;5015553;28;20421;-78
2021/08/21 07:25:42;;;;;;;11.90;7.93;;;;;;;;;;5015567;28;20973;-78
2021/08/21 07:28:09;;;;;;;8.63;7.57;;;;;;;;;;5016698;28;20406;-79
2021/08/21 07:30:35;;;;;;;13.83;8.80;;;;;;;;;;5016927;28;20422;-78
2021/08/21 07:33:01;;;;;;;8.50;7.27;;;;;;;;;;5016346;28;20762;-83
2021/08/21 07:35:27;;;;;;;10.80;8.40;;;;;;;;;;5016557;28;20437;-81
2021/08/21 07:37:53;;;;;;;10.30;8.80;;;;;;;;;;5013835;28;20443;-82
2021/08/21 07:40:19;;;;;;;8.80;7.30;;;;;;;;;;5010106;28;20462;-81
2021/08/21 07:42:45;;;;;;;10.10;7.20;;;;;;;;;;5010125;28;20908;-82
2021/08/21 07:45:13;;;;;;;9.23;7.13;;;;;;;;;;5006612;28;20535;-84
2021/08/21 07:47:39;;;;;;;7.70;6.87;;;;;;;;;;5015486;28;20956;-87
2021/08/21 07:50:06;;;;;;;9.97;5.97;;;;;;;;;;5015496;28;20447;-85
2021/08/21 07:52:32;;;;;;;9.57;6.37;;;;;;;;;;5015376;28;20417;-88
2021/08/21 07:54:58;;;;;;;7.23;5.57;;;;;;;;;;5015507;28;20441;-87
2021/08/21 07:57:24;;;;;;;6.20;5.60;;;;;;;;;;5015203;28;20421;-87
2021/08/21 07:59:50;;;;;;;6.20;5.60;;;;;;;;;;5016196;28;20416;-87
2021/08/21 08:02:16;;;;;;;8.50;5.57;;;;;;;;;;5014921;28;20395;-78
2021/08/21 08:04:42;;;;;;;5.70;5.10;;;;;;;;;;5014960;28;21253;-79
2021/08/21 08:07:08;;;;;;;5.80;4.90;;;;;;;;;;5015967;28;20430;-78
2021/08/21 08:09:34;;;;;;;6.43;5.70;;;;;;;;;;5015937;28;20388;-78
2021/08/21 08:12:00;;;;;;;9.83;6.00;;;;;;;;;;5011825;28;20440;-79
2021/08/21 08:14:26;;;;;;;7.60;6.10;;;;;;;;;;4994452;28;20426;-79
2021/08/21 08:16:52;;;;;;;5.93;5.33;;;;;;;;;;4994827;28;20765;-79
2021/08/21 08:19:18;;;;;;;5.20;4.70;;;;;;;;;;4994826;28;20450;-79
2021/08/21 08:21:44;;;;;;;4.33;3.93;;;;;;;;;;4996018;28;20457;-79
2021/08/21 08:24:12;;;;;;;3.63;3.20;;;;;;;;;;4995709;28;20393;-79
2021/08/21 08:26:38;;;;;;;5.87;3.37;;;;;;;;;;4996243;28;20499;-79
2021/08/21 08:29:04;;;;;;;3.70;3.23;;;;;;;;;;4996200;28;20468;-79
2021/08/21 08:31:30;;;;;;;3.73;3.33;;;;;;;;;;4995889;28;20403;-79
2021/08/21 08:33:56;;;;;;;2.63;2.40;;;;;;;;;;4995573;28;20407;-79
2021/08/21 08:36:22;;;;;;;3.83;2.97;;;;;;;;;;4998156;28;20487;-79
2021/08/21 08:38:49;;;;;;;3.90;2.40;;;;;;;;;;4998406;28;20787;-79
2021/08/21 08:41:17;;;;;;;2.20;2.00;;;;;;;;;;4994732;28;20960;-79
2021/08/21 08:43:43;;;;;;;5.30;2.87;;;;;;;;;;4995674;28;20422;-79
2021/08/21 08:46:09;;;;;;;3.73;2.73;;;;;;;;;;4995529;28;20954;-79
2021/08/21 08:48:37;;;;;;;4.27;3.30;;;;;;;;;;4994413;28;20435;-79
2021/08/21 08:51:03;;;;;;;3.43;3.10;;;;;;;;;;4995496;28;20888;-79
2021/08/21 08:53:29;;;;;;;6.80;3.77;;;;;;;;;;4995260;28;20419;-79
2021/08/21 08:55:55;;;;;;;6.23;4.53;;;;;;;;;;4995360;28;20442;-79
2021/08/21 08:58:21;;;;;;;6.33;5.07;;;;;;;;;;4995501;28;20425;-79
2021/08/21 09:00:47;;;;;;;4.67;3.30;;;;;;;;;;4994140;28;20517;-79
2021/08/21 09:03:21;;;;;;;4.73;4.23;;;;;;;;;;4994878;28;20452;-80
2021/08/21 09:05:47;;;;;;;4.80;4.43;;;;;;;;;;4996147;28;20462;-79
2021/08/21 09:08:24;;;;;;;5.20;3.97;;;;;;;;;;4995329;28;20414;-79
2021/08/21 09:10:58;;;;;;;4.33;3.93;;;;;;;;;;4995138;28;20407;-79
2021/08/21 09:13:24;;;;;;;4.37;3.87;;;;;;;;;;4994716;28;20426;-78
2021/08/21 09:15:54;;;;;;;4.60;4.20;;;;;;;;;;4992869;28;20557;-79
2021/08/21 09:18:32;;;;;;;5.13;4.13;;;;;;;;;;4995054;28;20407;-79
2021/08/21 09:21:11;;;;;;;3.43;3.13;;;;;;;;;;4994160;28;20422;-80
2021/08/21 09:23:41;;;;;;;3.57;2.80;;;;;;;;;;4994756;28;20421;-80
2021/08/21 09:26:36;;;;;;;3.50;2.73;;;;;;;;;;5001119;22;20850;-80
2021/08/21 09:29:03;;;;;;;4.80;2.70;;;;;;;;;;4994061;28;20514;-79
2021/08/21 09:31:36;;;;;;;3.60;2.67;;;;;;;;;;4994798;28;20418;-78
2021/08/21 09:34:05;;;;;;;5.50;2.97;;;;;;;;;;4992865;28;20935;-79
2021/08/21 09:40:02;;;;;;;3.23;2.80;;;;;;;;;;4994788;28;21023;-78
2021/08/21 09:51:05;;;;;;;3.03;2.77;;;;;;;;;;4973365;28;20419;-79
2021/08/21 09:53:40;;;;;;;3.53;2.70;;;;;;;;;;4993990;28;20589;-80
2021/08/21 09:56:12;;;;;;;2.47;2.27;;;;;;;;;;4994265;28;20887;-79
2021/08/21 09:59:10;;;;;;;2.83;2.63;;;;;;;;;;4994487;28;20557;-78
2021/08/21 10:01:36;;;;;;;4.30;3.13;;;;;;;;;;4976387;28;20426;-82
2021/08/21 10:04:06;;;;;;;3.23;2.60;;;;;;;;;;4993936;28;20434;-81
2021/08/21 10:06:32;;;;;;;3.57;2.83;;;;;;;;;;4994190;28;20500;-79
2021/08/21 10:09:07;;;;;;;2.80;2.33;;;;;;;;;;4994087;28;20402;-80
2021/08/21 10:11:33;;;;;;;2.67;2.47;;;;;;;;;;4976535;28;20437;-80
2021/08/21 10:17:07;;;;;;;4.00;2.50;;;;;;;;;;5039023;22;20586;-80
2021/08/21 10:22:40;;;;;;;2.20;1.97;;;;;;;;;;4939069;28;20411;-78
2021/08/21 10:25:07;;;;;;;3.30;2.73;;;;;;;;;;4991571;28;20971;-78
2021/08/21 10:28:02;;;;;;;3.30;2.90;;;;;;;;;;4991461;28;20582;-78
2021/08/21 10:30:49;;;;;;;4.00;3.00;;;;;;;;;;4979615;28;20427;-79
2021/08/21 10:33:16;;;;;;;4.20;2.27;;;;;;;;;;4991442;28;20395;-76
2021/08/21 10:35:55;;;;;;;3.90;2.27;;;;;;;;;;4975096;28;20447;-79
2021/08/21 10:38:40;;;;;;;5.40;2.93;;;;;;;;;;4975904;28;20450;-80
2021/08/21 10:41:13;;;;;;;3.90;2.87;;;;;;;;;;4991717;28;20406;-80
2021/08/21 10:43:46;;;;;;;2.50;2.30;;;;;;;;;;4974976;28;20431;-79
2021/08/21 10:46:12;;;;;;;3.57;2.00;;;;;;;;;;4991593;28;20863;-79
2021/08/21 10:48:38;;;;;;;2.30;2.10;;;;;;;;;;4991804;28;20793;-79
2021/08/21 10:51:05;;;;;;;5.77;2.03;;;;;;;;;;4991710;28;20419;-79
2021/08/21 10:53:32;;;;;;;2.70;2.20;;;;;;;;;;5005610;28;20492;-79
2021/08/21 10:56:00;;;;;;;2.17;1.97;;;;;;;;;;5011828;28;20454;-80
2021/08/21 10:58:27;;;;;;;2.30;2.10;;;;;;;;;;5013362;28;20417;-79
2021/08/21 11:00:54;;;;;;;2.17;1.97;;;;;;;;;;5011142;28;20501;-79
2021/08/21 11:03:23;;;;;;;6.53;1.87;;;;;;;;;;5012450;28;20421;-78
2021/08/21 11:05:52;;;;;;;3.10;2.10;;;;;;;;;;5012310;28;20469;-78
2021/08/21 11:08:19;;;;;;;3.13;2.33;;;;;;;;;;5012674;28;20480;-78
2021/08/21 11:10:45;;;;;;;2.37;2.17;;;;;;;;;;5013163;28;20778;-79
2021/08/21 11:13:14;;;;;;;4.17;2.10;;;;;;;;;;5011361;28;20906;-80
2021/08/21 11:15:40;;;;;;;3.10;2.13;;;;;;;;;;5012926;28;20548;-80
2021/08/21 11:18:22;;;;;;;2.60;2.33;;;;;;;;;;5013024;28;20417;-79
2021/08/21 11:20:49;;;;;;;4.87;2.20;;;;;;;;;;5013198;28;20417;-79
2021/08/21 11:23:15;;;;;;;2.70;2.20;;;;;;;;;;5012741;28;20424;-78
2021/08/21 11:25:43;;;;;;;1.70;1.60;;;;;;;;;;5012832;28;20465;-79
2021/08/21 11:28:20;;;;;;;2.63;2.40;;;;;;;;;;5011612;28;20421;-78
2021/08/21 11:31:06;;;;;;;2.00;1.83;;;;;;;;;;5013059;28;20409;-78
2021/08/21 11:33:33;;;;;;;2.77;2.30;;;;;;;;;;5011294;28;20417;-78
2021/08/21 11:35:59;;;;;;;2.90;2.20;;;;;;;;;;5012472;28;20457;-78
2021/08/21 11:38:30;;;;;;;3.40;1.80;;;;;;;;;;5013757;28;20418;-77
2021/08/21 11:40:57;;;;;;;4.40;2.43;;;;;;;;;;5015277;28;20442;-78
2021/08/21 11:43:27;;;;;;;3.57;2.40;;;;;;;;;;5016221;28;20413;-78
2021/08/21 11:45:54;;;;;;;2.30;2.00;;;;;;;;;;5016551;28;20797;-78
2021/08/21 11:48:25;;;;;;;2.23;1.87;;;;;;;;;;5015037;28;20986;-77
2021/08/21 11:50:51;;;;;;;3.67;2.00;;;;;;;;;;5016727;28;20420;-78
2021/08/21 11:53:22;;;;;;;2.30;2.03;;;;;;;;;;5015927;28;20417;-78
2021/08/21 11:55:48;;;;;;;2.13;1.93;;;;;;;;;;5016301;28;20906;-78
2021/08/21 11:58:14;;;;;;;2.00;1.90;;;;;;;;;;5016155;28;20409;-79
2021/08/21 12:00:42;;;;;;;4.27;2.10;;;;;;;;;;5016105;28;20476;-78
2021/08/21 12:03:10;;;;;;;2.10;1.90;;;;;;;;;;5014607;28;20556;-78
2021/08/21 12:05:43;;;;;;;2.20;1.83;;;;;;;;;;5016201;28;20489;-80
2021/08/21 12:08:19;;;;;;;3.30;2.03;;;;;;;;;;5016052;28;20410;-79
2021/08/21 12:10:46;;;;;;;2.97;2.70;;;;;;;;;;5015830;28;20475;-78
2021/08/21 12:13:15;;;;;;;2.40;2.20;;;;;;;;;;5013912;28;20426;-79
2021/08/21 12:15:41;;;;;;;2.40;2.20;;;;;;;;;;5015755;28;20477;-78
2021/08/21 12:18:09;;;;;;;2.00;1.90;;;;;;;;;;5016239;28;20426;-78
2021/08/21 12:20:39;;;;;;;2.30;2.10;;;;;;;;;;5014377;28;20541;-78
2021/08/21 12:23:07;;;;;;;2.93;2.20;;;;;;;;;;5015538;28;20417;-78
2021/08/21 12:25:46;;;;;;;4.50;2.50;;;;;;;;;;5015520;28;20466;-78
2021/08/21 12:28:13;;;;;;;2.37;2.17;;;;;;;;;;5015623;28;20409;-78
2021/08/21 12:30:39;;;;;;;2.67;2.40;;;;;;;;;;5015405;28;20406;-78
2021/08/21 12:33:12;;;;;;;4.00;2.10;;;;;;;;;;5015222;28;20446;-79
2021/08/21 12:35:38;;;;;;;3.10;2.40;;;;;;;;;;5012349;28;20517;-79
2021/08/21 12:38:06;;;;;;;2.43;2.23;;;;;;;;;;5015163;28;20409;-78
2021/08/21 12:40:32;;;;;;;2.90;1.97;;;;;;;;;;5014014;28;20500;-78
2021/08/21 12:43:02;;;;;;;4.70;2.53;;;;;;;;;;5015067;28;20410;-78
2021/08/21 12:45:28;;;;;;;3.37;2.30;;;;;;;;;;5015206;28;20572;-79
2021/08/21 12:47:54;;;;;;;2.40;2.20;;;;;;;;;;5015300;28;20500;-79
2021/08/21 12:50:22;;;;;;;4.73;2.00;;;;;;;;;;5014886;28;20410;-78
2021/08/21 12:53:01;;;;;;;3.37;2.60;;;;;;;;;;5013378;28;20457;-78
2021/08/21 12:55:28;;;;;;;3.57;2.10;;;;;;;;;;5013842;28;20512;-78
2021/08/21 12:58:03;;;;;;;3.23;2.07;;;;;;;;;;5015059;28;20422;-77
2021/08/21 13:00:29;;;;;;;2.17;1.97;;;;;;;;;;5014950;28;20921;-78
2021/08/21 13:02:55;;;;;;;2.40;2.20;;;;;;;;;;5013525;28;20429;-79
2021/08/21 13:05:23;;;;;;;2.17;1.80;;;;;;;;;;5013455;28;20477;-78
2021/08/21 13:07:53;;;;;;;2.47;2.27;;;;;;;;;;5013389;28;20429;-78
2021/08/21 13:10:21;;;;;;;2.27;1.90;;;;;;;;;;5013040;28;20521;-78
2021/08/21 13:12:47;;;;;;;4.43;2.27;;;;;;;;;;5013937;28;20412;-78
2021/08/21 13:15:15;;;;;;;2.77;1.97;;;;;;;;;;5014023;28;20460;-77
2021/08/21 13:17:41;;;;;;;2.70;2.50;;;;;;;;;;5014288;28;20497;-76
2021/08/21 13:20:08;;;;;;;2.10;2.00;;;;;;;;;;5014233;28;20406;-76
2021/08/21 13:22:35;;;;;;;2.30;2.10;;;;;;;;;;5014085;28;20433;-76
2021/08/21 13:25:01;;;;;;;3.50;2.70;;;;;;;;;;5013602;28;20576;-77
2021/08/21 13:27:27;;;;;;;3.70;2.00;;;;;;;;;;5014010;28;20406;-76
2021/08/21 13:29:54;;;;;;;2.70;1.87;;;;;;;;;;5013973;28;20418;-76
2021/08/21 13:32:20;;;;;;;1.93;1.83;;;;;;;;;;5012945;28;20434;-76
2021/08/21 13:34:46;;;;;;;3.90;2.33;;;;;;;;;;5013711;28;20436;-76
2021/08/21 13:37:12;;;;;;;4.13;2.70;;;;;;;;;;5012639;28;20418;-76
2021/08/21 13:39:38;;;;;;;3.57;2.43;;;;;;;;;;5014050;28;20973;-76
2021/08/21 13:42:05;;;;;;;4.43;2.00;;;;;;;;;;5012660;28;20509;-76
2021/08/21 13:44:31;;;;;;;2.57;2.17;;;;;;;;;;5013462;28;21223;-76
2021/08/21 13:46:57;;;;;;;1.97;1.60;;;;;;;;;;5013565;28;20497;-76
2021/08/21 13:49:23;;;;;;;2.13;1.93;;;;;;;;;;5013696;28;20445;-76
2021/08/21 13:51:49;;;;;;;2.63;2.43;;;;;;;;;;5012657;28;20441;-76
2021/08/21 13:54:15;;;;;;;2.43;2.13;;;;;;;;;;5013247;28;20440;-76
2021/08/21 13:56:41;;;;;;;2.50;2.30;;;;;;;;;;5013518;28;20974;-76
2021/08/21 13:59:07;;;;;;;2.70;2.50;;;;;;;;;;5012095;28;20592;-76
2021/08/21 14:01:33;;;;;;;3.90;1.80;;;;;;;;;;5012830;28;20416;-76
2021/08/21 14:03:59;;;;;;;3.07;2.10;;;;;;;;;;5011937;28;20475;-75
2021/08/21 14:06:25;;;;;;;6.70;2.10;;;;;;;;;;5013212;28;20480;-76
2021/08/21 14:08:51;;;;;;;3.13;2.27;;;;;;;;;;5013402;28;20409;-75
2021/08/21 14:11:17;;;;;;;2.43;1.90;;;;;;;;;;5013168;28;20492;-76
2021/08/21 14:13:43;;;;;;;2.87;1.90;;;;;;;;;;5013066;28;20489;-75
2021/08/21 14:16:09;;;;;;;2.43;2.23;;;;;;;;;;5013123;28;20492;-76
2021/08/21 14:18:35;;;;;;;2.53;2.20;;;;;;;;;;5013473;28;20418;-76
2021/08/21 14:21:01;;;;;;;2.90;2.10;;;;;;;;;;5013354;28;20422;-76
2021/08/21 14:23:27;;;;;;;2.20;2.00;;;;;;;;;;5012565;28;20516;-76
2021/08/21 14:25:53;;;;;;;2.20;1.97;;;;;;;;;;5012053;28;20564;-76
2021/08/21 14:28:19;;;;;;;2.23;2.03;;;;;;;;;;5012971;28;20413;-75
2021/08/21 14:30:46;;;;;;;2.03;1.83;;;;;;;;;;5013162;28;20410;-76
2021/08/21 14:33:13;;;;;;;4.50;2.00;;;;;;;;;;5012807;28;20771;-76
2021/08/21 14:35:39;;;;;;;2.83;2.27;;;;;;;;;;5012929;28;20458;-76
2021/08/21 14:38:05;;;;;;;3.40;2.23;;;;;;;;;;5012687;28;20894;-75
2021/08/21 14:40:31;;;;;;;3.30;2.00;;;;;;;;;;5013033;28;20769;-75
2021/08/21 14:42:57;;;;;;;3.00;2.30;;;;;;;;;;5012570;28;20500;-76
2021/08/21 14:45:23;;;;;;;2.57;2.37;;;;;;;;;;5011633;28;20927;-76
2021/08/21 14:47:49;;;;;;;4.13;2.23;;;;;;;;;;5011782;28;20417;-75
2021/08/21 14:50:15;;;;;;;2.10;1.80;;;;;;;;;;5012667;28;20406;-76
2021/08/21 14:52:41;;;;;;;2.87;2.40;;;;;;;;;;5012554;28;20414;-75
2021/08/21 14:55:08;;;;;;;2.67;2.33;;;;;;;;;;5011023;28;21216;-75
2021/08/21 14:57:34;;;;;;;2.20;2.00;;;;;;;;;;5012752;28;20425;-76
2021/08/21 15:00:00;;;;;;;3.10;2.50;;;;;;;;;;5012824;28;20426;-75